createdAt,value
2022-08-14T00:00:45.671Z,18.03
2022-08-14T00:03:29.452Z,18.01
2022-08-14T00:06:01.109Z,17.98
2022-08-14T00:08:45.314Z,17.93
2022-08-14T00:11:14.622Z,17.87
2022-08-14T00:13:51.737Z,17.83
2022-08-14T00:16:41.764Z,17.80
2022-08-14T00:19:19.406Z,17.81
2022-08-14T00:21:51.940Z,17.74
2022-08-14T00:24:28.937Z,17.71
2022-08-14T00:27:02.065Z,17.67
2022-08-14T00:29:40.413Z,17.62
2022-08-14T00:32:50.503Z,17.57
2022-08-14T00:35:07.784Z,17.53
2022-08-14T00:37:44.020Z,17.49
2022-08-14T00:40:27.493Z,17.47
2022-08-14T00:43:04.887Z,17.45
2022-08-14T00:45:33.944Z,17.40
2022-08-14T00:48:03.151Z,17.37
2022-08-14T00:50:34.443Z,17.34
2022-08-14T00:53:10.595Z,17.33
2022-08-14T00:55:41.445Z,17.28
2022-08-14T00:58:32.940Z,17.22
2022-08-14T01:01:06.046Z,17.21
2022-08-14T01:03:39.641Z,17.16
2022-08-14T01:06:16.922Z,17.13
2022-08-14T01:08:51.495Z,17.08
2022-08-14T01:11:35.247Z,17.08
2022-08-14T01:14:25.923Z,17.04
2022-08-14T01:16:55.393Z,17.06
2022-08-14T01:19:44.656Z,16.99
2022-08-14T01:22:21.186Z,16.98
2022-08-14T01:25:07.918Z,16.92
2022-08-14T01:27:53.844Z,16.88
2022-08-14T01:30:28.592Z,16.85
2022-08-14T01:32:59.821Z,16.85
2022-08-14T01:36:04.079Z,16.82
2022-08-14T01:38:57.984Z,16.79
2022-08-14T01:41:56.194Z,16.76
2022-08-14T01:44:54.377Z,16.70
2022-08-14T01:47:44.290Z,16.65
2022-08-14T01:50:34.393Z,16.59
2022-08-14T01:53:23.744Z,16.55
2022-08-14T01:56:03.479Z,16.55
2022-08-14T01:58:33.154Z,16.54
2022-08-14T02:01:05.152Z,16.50
2022-08-14T02:03:41.972Z,16.50
2022-08-14T02:06:32.501Z,16.50
2022-08-14T02:09:04.421Z,16.48
2022-08-14T02:11:54.555Z,16.43
2022-08-14T02:14:31.528Z,16.42
2022-08-14T02:17:01.872Z,16.41
2022-08-14T02:19:35.771Z,16.33
2022-08-14T02:22:06.297Z,16.31
2022-08-14T02:24:45.201Z,16.31
2022-08-14T02:28:22.294Z,16.24
2022-08-14T02:30:11.103Z,16.24
2022-08-14T02:32:42.936Z,16.22
2022-08-14T02:35:17.993Z,16.20
2022-08-14T02:37:49.317Z,16.13
2022-08-14T02:40:22.654Z,16.08
2022-08-14T02:43:03.745Z,16.10
2022-08-14T02:45:38.832Z,16.06
2022-08-14T02:49:02.102Z,16.05
2022-08-14T02:51:10.553Z,15.99
2022-08-14T02:53:42.856Z,15.98
2022-08-14T02:56:30.632Z,15.99
2022-08-14T02:59:10.215Z,15.94
2022-08-14T03:01:43.583Z,15.85
2022-08-14T03:04:20.184Z,15.86
2022-08-14T03:07:06.115Z,15.83
2022-08-14T03:10:25.028Z,15.80
2022-08-14T03:12:31.446Z,15.76
2022-08-14T03:15:14.217Z,15.74
2022-08-14T03:17:57.181Z,15.71
2022-08-14T03:20:29.092Z,15.70
2022-08-14T03:23:04.255Z,15.70
2022-08-14T03:25:37.349Z,15.69
2022-08-14T03:28:14.406Z,15.66
2022-08-14T03:31:00.305Z,15.60
2022-08-14T03:33:37.810Z,15.56
2022-08-14T03:37:39.354Z,15.54
2022-08-14T03:39:14.626Z,15.52
2022-08-14T03:41:51.411Z,15.50
2022-08-14T03:45:20.370Z,15.52
2022-08-14T03:47:12.170Z,15.48
2022-08-14T03:49:50.197Z,15.43
2022-08-14T03:52:55.667Z,15.41
2022-08-14T03:55:13.064Z,15.35
2022-08-14T03:57:44.078Z,15.35
2022-08-14T04:00:44.348Z,15.37
2022-08-14T04:03:09.108Z,15.37
2022-08-14T04:05:43.466Z,15.36
2022-08-14T04:08:30.291Z,15.40
2022-08-14T04:11:02.054Z,15.35
2022-08-14T04:13:35.403Z,15.38
2022-08-14T04:16:06.925Z,15.34
2022-08-14T04:18:46.276Z,15.38
2022-08-14T04:21:17.013Z,15.36
2022-08-14T04:23:49.206Z,15.31
2022-08-14T04:26:42.004Z,15.32
2022-08-14T04:29:15.563Z,15.33
2022-08-14T04:32:59.062Z,15.35
2022-08-14T04:34:41.980Z,15.40
2022-08-14T04:37:29.280Z,15.36
2022-08-14T04:40:19.616Z,15.40
2022-08-14T04:43:06.178Z,15.41
2022-08-14T04:45:38.744Z,15.41
2022-08-14T04:48:13.206Z,15.40
2022-08-14T04:50:49.096Z,15.44
2022-08-14T04:53:26.422Z,15.44
2022-08-14T04:56:10.378Z,15.48
2022-08-14T04:58:42.454Z,15.51
2022-08-14T05:01:17.865Z,15.49
2022-08-14T05:03:50.585Z,15.52
2022-08-14T05:06:37.614Z,15.46
2022-08-14T05:09:14.429Z,15.53
2022-08-14T05:11:44.170Z,15.55
2022-08-14T05:14:33.108Z,15.67
2022-08-14T05:17:02.594Z,15.69
2022-08-14T05:19:32.198Z,15.70
2022-08-14T05:22:16.414Z,15.80
2022-08-14T05:24:50.497Z,15.81
2022-08-14T05:27:22.982Z,15.87
2022-08-14T05:29:56.869Z,15.90
2022-08-14T05:32:28.115Z,16.00
2022-08-14T05:34:59.547Z,16.05
2022-08-14T05:37:31.004Z,16.19
2022-08-14T05:40:02.030Z,16.23
2022-08-14T05:42:34.292Z,16.29
2022-08-14T05:45:11.128Z,16.37
2022-08-14T05:47:43.162Z,16.42
2022-08-14T05:50:18.759Z,16.54
2022-08-14T05:52:51.994Z,16.67
2022-08-14T05:55:22.778Z,16.70
2022-08-14T05:57:59.358Z,16.84
2022-08-14T06:00:37.201Z,16.85
2022-08-14T06:03:10.893Z,17.02
2022-08-14T06:05:40.206Z,17.16
2022-08-14T06:08:31.391Z,17.25
2022-08-14T06:11:09.340Z,17.43
2022-08-14T06:13:45.238Z,17.60
2022-08-14T06:16:18.412Z,17.70
2022-08-14T06:18:52.620Z,17.85
2022-08-14T06:21:23.860Z,18.03
2022-08-14T06:23:54.194Z,18.15
2022-08-14T06:26:23.120Z,18.31
2022-08-14T06:28:59.869Z,18.39
2022-08-14T06:31:29.042Z,18.55
2022-08-14T06:35:02.281Z,18.70
2022-08-14T06:36:47.224Z,18.86
2022-08-14T06:39:17.706Z,19.04
2022-08-14T06:42:06.431Z,19.20
2022-08-14T06:44:35.841Z,19.33
2022-08-14T06:47:06.115Z,19.41
2022-08-14T06:49:40.478Z,19.55
2022-08-14T06:52:17.463Z,19.70
2022-08-14T06:54:49.863Z,19.82
2022-08-14T06:57:21.690Z,19.95
2022-08-14T06:59:51.949Z,20.06
2022-08-14T07:02:43.622Z,20.21
2022-08-14T07:05:30.363Z,20.40
2022-08-14T07:08:00.543Z,20.62
2022-08-14T07:10:31.925Z,20.82
2022-08-14T07:13:04.191Z,21.07
2022-08-14T07:15:39.570Z,21.26
2022-08-14T07:18:10.502Z,21.46
2022-08-14T07:20:40.599Z,21.63
2022-08-14T07:23:20.462Z,21.87
2022-08-14T07:25:57.004Z,22.13
2022-08-14T07:28:31.452Z,22.37
2022-08-14T07:31:05.232Z,22.61
2022-08-14T07:33:42.000Z,22.90
2022-08-14T07:36:27.528Z,23.16
2022-08-14T07:39:00.646Z,23.38
2022-08-14T07:41:35.660Z,23.58
2022-08-14T07:44:28.729Z,23.80
2022-08-14T07:46:54.640Z,24.14
2022-08-14T07:49:24.496Z,24.38
2022-08-14T07:51:56.335Z,24.58
2022-08-14T07:54:30.377Z,24.90
2022-08-14T07:57:11.924Z,25.20
2022-08-14T07:59:44.381Z,25.35
2022-08-14T08:02:20.553Z,25.46
2022-08-14T08:04:55.181Z,25.84
2022-08-14T08:07:31.780Z,26.14
2022-08-14T08:10:40.663Z,26.55
2022-08-14T08:13:22.305Z,26.89
2022-08-14T08:15:57.406Z,26.82
2022-08-14T08:18:29.424Z,27.05
2022-08-14T08:21:00.665Z,27.50
2022-08-14T08:23:40.469Z,27.66
2022-08-14T08:26:12.642Z,27.92
2022-08-14T08:28:44.646Z,28.17
2022-08-14T08:31:13.776Z,28.30
2022-08-14T08:33:43.653Z,28.47
2022-08-14T08:36:19.224Z,28.55
2022-08-14T08:39:17.145Z,28.87
2022-08-14T08:41:49.426Z,29.09
2022-08-14T08:44:33.004Z,29.49
2022-08-14T08:47:06.104Z,29.93
2022-08-14T08:49:52.857Z,30.30
2022-08-14T08:52:31.605Z,30.40
2022-08-14T08:55:04.967Z,30.73
2022-08-14T08:57:37.622Z,30.88
2022-08-14T09:00:24.371Z,31.22
2022-08-14T09:02:57.701Z,31.51
2022-08-14T09:05:28.771Z,31.65
2022-08-14T09:08:26.561Z,31.75
2022-08-14T09:11:02.367Z,31.81
2022-08-14T09:13:33.151Z,32.10
2022-08-14T09:16:18.615Z,32.37
2022-08-14T09:18:48.859Z,32.49
2022-08-14T09:21:18.390Z,32.44
2022-08-14T09:24:26.785Z,32.65
2022-08-14T09:26:38.523Z,32.95
2022-08-14T09:29:10.546Z,33.27
2022-08-14T09:31:52.940Z,33.22
2022-08-14T09:34:47.410Z,33.19
2022-08-14T09:38:01.435Z,33.30
2022-08-14T09:40:47.842Z,33.10
2022-08-14T09:43:32.043Z,32.67
2022-08-14T09:46:02.672Z,32.63
2022-08-14T09:48:37.599Z,32.98
2022-08-14T09:51:09.849Z,32.88
2022-08-14T09:54:19.403Z,32.94
2022-08-14T09:56:46.993Z,32.66
2022-08-14T09:59:28.284Z,32.97
2022-08-14T10:02:01.325Z,33.50
2022-08-14T10:04:36.001Z,34.02
2022-08-14T10:07:10.119Z,34.11
2022-08-14T10:09:59.465Z,34.37
2022-08-14T10:12:49.991Z,34.41
2022-08-14T10:15:23.860Z,34.22
2022-08-14T10:18:17.274Z,34.05
2022-08-14T10:21:00.934Z,34.14
2022-08-14T10:23:49.773Z,34.60
2022-08-14T10:26:23.126Z,34.78
2022-08-14T10:29:20.251Z,34.93
2022-08-14T10:32:00.102Z,35.26
2022-08-14T10:34:36.609Z,35.23
2022-08-14T10:37:14.665Z,35.36
2022-08-14T10:40:01.693Z,35.47
2022-08-14T10:42:40.469Z,35.61
2022-08-14T10:45:21.812Z,35.40
2022-08-14T10:48:09.221Z,35.52
2022-08-14T10:50:46.429Z,36.05
2022-08-14T10:53:17.145Z,36.28
2022-08-14T10:55:48.191Z,36.27
2022-08-14T10:58:34.146Z,36.25
2022-08-14T11:01:05.424Z,35.82
2022-08-14T11:03:56.883Z,35.67
2022-08-14T11:06:27.248Z,35.64
2022-08-14T11:09:17.027Z,35.40
2022-08-14T11:11:49.383Z,35.52
2022-08-14T11:14:26.574Z,35.44
2022-08-14T11:16:57.941Z,35.41
2022-08-14T11:19:27.621Z,34.98
2022-08-14T11:22:01.119Z,34.95
2022-08-14T11:24:53.871Z,35.20
2022-08-14T11:27:33.153Z,35.00
2022-08-14T11:30:50.781Z,34.59
2022-08-14T11:32:59.917Z,34.23
2022-08-14T11:35:44.361Z,34.55
2022-08-14T11:38:19.959Z,34.78
2022-08-14T11:40:52.487Z,34.58
2022-08-14T11:43:22.613Z,34.56
2022-08-14T11:46:03.737Z,34.75
2022-08-14T11:49:02.526Z,34.91
2022-08-14T11:51:35.923Z,34.93
2022-08-14T11:54:20.215Z,35.13
2022-08-14T11:57:06.329Z,35.39
2022-08-14T11:59:35.390Z,35.69
2022-08-14T12:03:00.600Z,35.86
2022-08-14T12:05:03.979Z,36.23
2022-08-14T12:07:33.454Z,36.26
2022-08-14T12:10:26.992Z,36.22
2022-08-14T12:12:56.403Z,36.73
2022-08-14T12:15:35.936Z,36.71
2022-08-14T12:18:06.502Z,36.49
2022-08-14T12:20:52.476Z,36.72
2022-08-14T12:23:24.817Z,36.96
2022-08-14T12:26:32.018Z,37.38
2022-08-14T12:29:08.404Z,37.60
2022-08-14T12:31:44.587Z,37.81
2022-08-14T12:34:19.985Z,38.01
2022-08-14T12:36:50.000Z,37.69
2022-08-14T12:39:21.223Z,37.77
2022-08-14T12:41:57.353Z,38.26
2022-08-14T12:44:37.344Z,38.40
2022-08-14T12:47:09.637Z,37.76
2022-08-14T12:49:52.500Z,37.24
2022-08-14T12:52:42.942Z,36.86
2022-08-14T12:55:21.049Z,37.09
2022-08-14T12:57:53.736Z,37.10
2022-08-14T13:00:25.940Z,37.04
2022-08-14T13:02:56.814Z,36.80
2022-08-14T13:05:27.279Z,36.86
2022-08-14T13:07:57.335Z,37.30
2022-08-14T13:10:51.339Z,37.62
2022-08-14T13:13:22.288Z,37.73
2022-08-14T13:15:57.435Z,37.99
2022-08-14T13:18:30.444Z,38.31
2022-08-14T13:21:02.383Z,37.82
2022-08-14T13:23:37.545Z,37.77
2022-08-14T13:26:08.398Z,38.23
2022-08-14T13:29:02.072Z,38.61
2022-08-14T13:31:37.017Z,38.89
2022-08-14T13:34:06.860Z,39.41
2022-08-14T13:36:54.647Z,39.76
2022-08-14T13:39:29.757Z,40.04
2022-08-14T13:42:08.073Z,40.14
2022-08-14T13:44:42.485Z,39.72
2022-08-14T13:47:15.341Z,39.23
2022-08-14T13:49:57.192Z,39.52
2022-08-14T13:52:51.286Z,39.80
2022-08-14T13:55:21.871Z,39.72
2022-08-14T13:58:02.868Z,39.42
2022-08-14T14:00:52.119Z,39.06
2022-08-14T14:03:30.525Z,38.47
2022-08-14T14:06:03.442Z,38.20
2022-08-14T14:08:45.816Z,37.64
2022-08-14T14:11:23.896Z,37.43
2022-08-14T14:13:55.175Z,37.51
2022-08-14T14:16:30.701Z,38.05
2022-08-14T14:19:08.736Z,37.50
2022-08-14T14:21:40.443Z,37.74
2022-08-14T14:24:15.511Z,38.12
2022-08-14T14:26:50.171Z,38.33
2022-08-14T14:29:24.212Z,38.22
2022-08-14T14:31:58.663Z,37.90
2022-08-14T14:34:34.061Z,37.82
2022-08-14T14:37:06.186Z,37.61
2022-08-14T14:40:50.546Z,37.72
2022-08-14T14:42:31.997Z,37.46
2022-08-14T14:45:14.244Z,36.72
2022-08-14T14:47:48.351Z,36.10
2022-08-14T14:50:23.036Z,35.95
2022-08-14T14:52:54.046Z,35.82
2022-08-14T14:56:50.258Z,35.98
2022-08-14T14:58:35.488Z,36.52
2022-08-14T15:01:08.502Z,36.70
2022-08-14T15:03:43.235Z,36.76
2022-08-14T15:06:17.564Z,36.94
2022-08-14T15:08:55.638Z,37.26
2022-08-14T15:11:30.208Z,37.60
2022-08-14T15:14:00.528Z,37.95
2022-08-14T15:16:30.004Z,38.27
2022-08-14T15:18:59.083Z,38.64
2022-08-14T15:21:29.622Z,38.79
2022-08-14T15:24:01.038Z,38.71
2022-08-14T15:26:31.498Z,38.55
2022-08-14T15:29:05.903Z,38.38
2022-08-14T15:31:37.410Z,38.64
2022-08-14T15:34:45.498Z,38.70
2022-08-14T15:37:11.170Z,38.36
2022-08-14T15:39:45.888Z,38.31
2022-08-14T15:42:17.084Z,38.47
2022-08-14T15:44:56.906Z,38.46
2022-08-14T15:47:29.547Z,38.32
2022-08-14T15:50:00.516Z,38.22
2022-08-14T15:52:34.748Z,38.05
2022-08-14T15:55:06.376Z,38.06
2022-08-14T15:57:36.653Z,38.25
2022-08-14T16:00:43.261Z,38.50
2022-08-14T16:03:14.295Z,38.74
2022-08-14T16:05:46.291Z,38.85
2022-08-14T16:08:27.464Z,39.05
2022-08-14T16:11:00.382Z,39.08
2022-08-14T16:13:42.209Z,38.98
2022-08-14T16:16:47.076Z,38.90
2022-08-14T16:19:09.523Z,38.75
2022-08-14T16:22:01.515Z,38.49
2022-08-14T16:25:01.943Z,38.00
2022-08-14T16:27:38.861Z,37.73
2022-08-14T16:30:20.682Z,37.67
2022-08-14T16:32:56.457Z,37.52
2022-08-14T16:35:42.984Z,37.22
2022-08-14T16:38:46.209Z,36.97
2022-08-14T16:41:23.348Z,36.66
2022-08-14T16:43:59.221Z,36.43
2022-08-14T16:46:32.837Z,36.08
2022-08-14T16:49:02.702Z,35.99
2022-08-14T16:51:34.789Z,35.88
2022-08-14T16:54:34.323Z,35.58
2022-08-14T16:57:16.221Z,35.37
2022-08-14T16:59:57.324Z,35.33
2022-08-14T17:02:39.045Z,35.23
2022-08-14T17:05:22.571Z,35.19
2022-08-14T17:08:32.079Z,35.13
2022-08-14T17:11:10.089Z,35.04
2022-08-14T17:13:59.385Z,34.87
2022-08-14T17:16:35.686Z,34.63
2022-08-14T17:19:13.462Z,34.39
2022-08-14T17:21:47.155Z,34.21
2022-08-14T17:24:57.647Z,33.94
2022-08-14T17:27:09.295Z,33.73
2022-08-14T17:29:44.753Z,33.56
2022-08-14T17:32:56.603Z,33.32
2022-08-14T17:35:58.777Z,33.02
2022-08-14T17:38:38.830Z,32.79
2022-08-14T17:41:32.717Z,32.60
2022-08-14T17:44:34.038Z,32.30
2022-08-14T17:47:18.403Z,32.03
2022-08-14T17:49:53.941Z,31.81
2022-08-14T17:52:34.196Z,31.61
2022-08-14T17:55:07.260Z,31.43
2022-08-14T17:57:41.147Z,31.26
2022-08-14T18:00:15.110Z,31.08
2022-08-14T18:02:50.435Z,30.90
2022-08-14T18:06:08.486Z,30.73
2022-08-14T18:08:32.727Z,30.51
2022-08-14T18:11:04.028Z,30.33
2022-08-14T18:13:49.782Z,30.16
2022-08-14T18:16:22.643Z,30.01
2022-08-14T18:18:53.547Z,29.83
2022-08-14T18:21:56.254Z,29.62
2022-08-14T18:24:27.990Z,29.45
2022-08-14T18:27:06.885Z,29.29
2022-08-14T18:29:54.607Z,29.13
2022-08-14T18:32:55.409Z,28.97
2022-08-14T18:35:45.669Z,28.79
2022-08-14T18:38:45.639Z,28.63
2022-08-14T18:41:36.788Z,28.44
2022-08-14T18:44:10.690Z,28.28
2022-08-14T18:47:21.120Z,28.09
2022-08-14T18:50:27.922Z,27.91
2022-08-14T18:53:10.865Z,27.76
2022-08-14T18:55:54.441Z,27.59
2022-08-14T18:58:30.393Z,27.45
2022-08-14T19:01:09.041Z,27.28
2022-08-14T19:03:58.147Z,27.12
2022-08-14T19:06:56.328Z,26.97
2022-08-14T19:09:58.827Z,26.83
2022-08-14T19:12:57.637Z,26.68
2022-08-14T19:15:30.120Z,26.56
2022-08-14T19:18:14.737Z,26.43
2022-08-14T19:20:52.781Z,26.32
2022-08-14T19:23:43.974Z,26.19
2022-08-14T19:26:36.741Z,26.06
2022-08-14T19:29:36.078Z,25.93
2022-08-14T19:32:42.082Z,25.82
2022-08-14T19:35:49.646Z,25.68
2022-08-14T19:38:51.946Z,25.57
2022-08-14T19:41:29.488Z,25.47
2022-08-14T19:44:12.660Z,25.38
2022-08-14T19:47:01.290Z,25.29
2022-08-14T19:50:24.535Z,25.20
2022-08-14T19:52:29.798Z,25.11
2022-08-14T19:55:02.138Z,25.03
2022-08-14T19:57:33.385Z,24.95
2022-08-14T20:00:28.438Z,24.85
2022-08-14T20:03:10.727Z,24.75
2022-08-14T20:05:42.829Z,24.66
2022-08-14T20:11:00.561Z,24.56
2022-08-14T20:11:21.087Z,24.45
2022-08-14T20:14:09.530Z,24.34
2022-08-14T20:16:43.856Z,24.26
2022-08-14T20:19:20.971Z,24.17
2022-08-14T20:22:04.199Z,24.07
2022-08-14T20:24:47.395Z,23.98
2022-08-14T20:27:34.358Z,23.90
2022-08-14T20:30:33.683Z,23.81
2022-08-14T20:33:11.264Z,23.71
2022-08-14T20:35:49.021Z,23.60
2022-08-14T20:38:29.398Z,23.54
2022-08-14T20:41:24.816Z,23.45
2022-08-14T20:44:20.748Z,23.35
2022-08-14T20:46:58.943Z,23.26
2022-08-14T20:49:33.796Z,23.20
2022-08-14T20:52:19.277Z,23.12
2022-08-14T20:54:51.378Z,23.03
2022-08-14T20:57:20.909Z,22.98
2022-08-14T20:59:57.541Z,22.92
2022-08-14T21:02:46.754Z,22.86
2022-08-14T21:05:33.936Z,22.80
2022-08-14T21:08:09.965Z,22.74
2022-08-14T21:10:56.690Z,22.69
2022-08-14T21:14:24.815Z,22.63
2022-08-14T21:16:34.682Z,22.60
2022-08-14T21:19:08.621Z,22.57
2022-08-14T21:21:40.846Z,22.55
2022-08-14T21:24:39.635Z,22.54
2022-08-14T21:27:12.956Z,22.52
2022-08-14T21:29:55.057Z,22.48
2022-08-14T21:32:46.957Z,22.47
2022-08-14T21:35:22.929Z,22.42
2022-08-14T21:37:53.663Z,22.39
2022-08-14T21:40:42.343Z,22.38
2022-08-14T21:43:19.422Z,22.33
2022-08-14T21:45:53.021Z,22.30
2022-08-14T21:48:26.319Z,22.26
2022-08-14T21:51:54.538Z,22.23
2022-08-14T21:53:59.424Z,22.17
2022-08-14T21:56:38.146Z,22.13
2022-08-14T21:59:17.557Z,22.08
2022-08-14T22:02:01.509Z,22.03
2022-08-14T22:04:40.820Z,21.95
2022-08-14T22:07:16.903Z,21.89
2022-08-14T22:09:55.161Z,21.83
2022-08-14T22:12:47.338Z,21.77
2022-08-14T22:15:19.777Z,21.70
2022-08-14T22:17:54.242Z,21.64
2022-08-14T22:20:29.228Z,21.58
2022-08-14T22:23:05.260Z,21.51
2022-08-14T22:25:41.074Z,21.44
2022-08-14T22:28:15.558Z,21.39
2022-08-14T22:30:45.930Z,21.33
2022-08-14T22:33:16.340Z,21.28
2022-08-14T22:35:56.403Z,21.21
2022-08-14T22:38:37.602Z,21.16
2022-08-14T22:41:25.808Z,21.08
2022-08-14T22:44:06.838Z,21.02
2022-08-14T22:46:38.453Z,20.95
2022-08-14T22:49:16.880Z,20.90
2022-08-14T22:52:05.004Z,20.83
2022-08-14T22:54:55.568Z,20.75
2022-08-14T22:57:41.710Z,20.70
2022-08-14T23:00:17.487Z,20.63
2022-08-14T23:02:47.130Z,20.59
2022-08-14T23:05:39.811Z,20.51
2022-08-14T23:08:59.798Z,20.46
2022-08-14T23:11:07.459Z,20.40
2022-08-14T23:13:36.576Z,20.35
2022-08-14T23:16:09.398Z,20.30
2022-08-14T23:18:38.993Z,20.23
2022-08-14T23:21:10.798Z,20.20
2022-08-14T23:23:41.510Z,20.15
2022-08-14T23:26:49.922Z,20.11
2022-08-14T23:29:03.045Z,20.06
2022-08-14T23:31:35.228Z,20.02
2022-08-14T23:34:07.496Z,19.98
2022-08-14T23:36:53.622Z,19.92
2022-08-14T23:39:32.221Z,19.87
2022-08-14T23:42:10.341Z,19.84
2022-08-14T23:44:40.764Z,19.79
2022-08-14T23:47:26.197Z,19.75
2022-08-14T23:50:03.465Z,19.70
2022-08-14T23:53:04.116Z,19.69
2022-08-14T23:55:32.857Z,19.68
2022-08-14T23:58:03.185Z,19.65
